createdAt,value
2023-02-05T00:01:58.026Z,7.70
2023-02-05T00:04:26.373Z,8.02
2023-02-05T00:06:56.236Z,8.05
2023-02-05T00:09:28.706Z,7.70
2023-02-05T00:11:57.052Z,8.27
2023-02-05T00:14:25.980Z,7.72
2023-02-05T00:16:54.726Z,7.18
2023-02-05T00:19:23.894Z,7.40
2023-02-05T00:21:52.736Z,7.75
2023-02-05T00:24:22.388Z,7.88
2023-02-05T00:26:51.432Z,7.32
2023-02-05T00:29:21.351Z,7.53
2023-02-05T00:31:50.193Z,7.40
2023-02-05T00:34:19.123Z,7.13
2023-02-05T00:36:48.973Z,7.97
2023-02-05T00:39:20.053Z,10.68
2023-02-05T00:41:50.927Z,8.90
2023-02-05T00:44:22.516Z,9.18
2023-02-05T00:46:50.986Z,7.28
2023-02-05T00:49:19.587Z,6.93
2023-02-05T00:51:48.386Z,6.68
2023-02-05T00:54:19.834Z,6.57
2023-02-05T00:56:48.361Z,6.70
2023-02-05T00:59:19.051Z,6.47
2023-02-05T01:01:48.554Z,6.75
2023-02-05T01:04:16.887Z,5.93
2023-02-05T01:06:48.159Z,6.10
2023-02-05T01:09:16.471Z,6.93
2023-02-05T01:11:44.789Z,7.63
2023-02-05T01:14:14.352Z,7.88
2023-02-05T01:16:44.036Z,6.32
2023-02-05T01:19:12.679Z,6.88
2023-02-05T01:21:40.979Z,6.55
2023-02-05T01:24:09.772Z,6.32
2023-02-05T01:26:38.094Z,6.53
2023-02-05T01:29:06.415Z,6.15
2023-02-05T01:31:34.984Z,5.82
2023-02-05T01:34:04.724Z,6.13
2023-02-05T01:36:35.033Z,5.40
2023-02-05T01:39:03.666Z,5.60
2023-02-05T01:41:32.162Z,5.97
2023-02-05T01:44:07.655Z,5.43
2023-02-05T01:46:37.378Z,5.35
2023-02-05T01:49:07.842Z,5.57
2023-02-05T01:51:37.632Z,6.05
2023-02-05T01:54:06.923Z,5.88
2023-02-05T01:56:38.712Z,7.07
2023-02-05T01:59:09.609Z,6.90
2023-02-05T02:01:38.415Z,6.28
2023-02-05T02:04:13.626Z,6.55
2023-02-05T02:06:42.093Z,6.50
2023-02-05T02:09:10.521Z,6.90
2023-02-05T02:11:40.542Z,7.60
2023-02-05T02:14:11.582Z,7.15
2023-02-05T02:16:40.581Z,6.70
2023-02-05T02:19:14.448Z,7.10
2023-02-05T02:22:08.979Z,6.60
2023-02-05T02:24:54.897Z,6.07
2023-02-05T02:27:47.631Z,6.75
2023-02-05T02:30:18.872Z,6.63
2023-02-05T02:32:51.016Z,6.93
2023-02-05T02:35:22.020Z,5.53
2023-02-05T02:37:53.998Z,5.90
2023-02-05T02:40:23.664Z,5.60
2023-02-05T02:42:55.341Z,6.00
2023-02-05T02:45:24.582Z,5.75
2023-02-05T02:47:55.120Z,5.88
2023-02-05T02:50:25.613Z,6.28
2023-02-05T02:52:55.342Z,6.30
2023-02-05T02:55:24.292Z,5.97
2023-02-05T02:57:54.428Z,5.22
2023-02-05T03:00:24.908Z,6.10
2023-02-05T03:02:55.397Z,6.43
2023-02-05T03:05:24.902Z,5.03
2023-02-05T03:07:54.714Z,6.70
2023-02-05T03:10:26.668Z,7.35
2023-02-05T03:12:56.894Z,7.55
2023-02-05T03:15:25.289Z,7.32
2023-02-05T03:17:55.150Z,6.75
2023-02-05T03:20:25.749Z,7.45
2023-02-05T03:22:54.305Z,6.95
2023-02-05T03:25:23.859Z,6.47
2023-02-05T03:27:54.977Z,6.95
2023-02-05T03:30:27.475Z,7.32
2023-02-05T03:32:59.116Z,8.18
2023-02-05T03:35:31.151Z,7.72
2023-02-05T03:38:08.193Z,7.97
2023-02-05T03:40:40.513Z,6.80
2023-02-05T03:43:12.374Z,6.07
2023-02-05T03:45:49.217Z,6.00
2023-02-05T03:48:25.219Z,6.80
2023-02-05T03:50:56.088Z,6.20
2023-02-05T03:53:27.936Z,6.88
2023-02-05T03:56:01.655Z,6.88
2023-02-05T04:00:59.460Z,6.72
2023-02-05T04:03:27.887Z,6.78
2023-02-05T04:05:56.230Z,6.47
2023-02-05T04:08:24.519Z,7.55
2023-02-05T04:10:52.811Z,6.60
2023-02-05T04:13:21.152Z,5.47
2023-02-05T04:15:50.082Z,5.60
2023-02-05T04:18:20.028Z,5.78
2023-02-05T04:20:48.283Z,5.55
2023-02-05T04:23:16.691Z,5.45
2023-02-05T04:25:45.043Z,6.07
2023-02-05T04:28:13.507Z,5.63
2023-02-05T04:30:41.878Z,6.10
2023-02-05T04:33:10.577Z,6.95
2023-02-05T04:35:40.337Z,5.80
2023-02-05T04:38:08.610Z,6.32
2023-02-05T04:40:36.885Z,6.63
2023-02-05T04:43:05.194Z,6.15
2023-02-05T04:45:33.782Z,5.82
2023-02-05T04:48:02.540Z,6.25
2023-02-05T04:50:30.855Z,5.97
2023-02-05T04:53:02.083Z,6.25
2023-02-05T04:55:30.555Z,5.90
2023-02-05T04:57:59.099Z,5.53
2023-02-05T05:00:27.550Z,6.03
2023-02-05T05:02:55.889Z,5.80
2023-02-05T05:05:24.191Z,6.32
2023-02-05T05:07:52.479Z,5.90
2023-02-05T05:10:22.213Z,5.85
2023-02-05T05:12:50.541Z,5.72
2023-02-05T05:15:19.244Z,5.97
2023-02-05T05:17:47.551Z,5.05
2023-02-05T05:20:15.897Z,5.45
2023-02-05T05:22:45.213Z,4.88
2023-02-05T05:25:13.636Z,5.38
2023-02-05T05:27:43.320Z,6.60
2023-02-05T05:30:13.273Z,6.45
2023-02-05T05:32:41.542Z,6.45
2023-02-05T05:35:10.081Z,6.30
2023-02-05T05:37:38.360Z,5.97
2023-02-05T05:40:24.942Z,6.13
2023-02-05T05:43:12.524Z,6.00
2023-02-05T05:45:40.823Z,6.20
2023-02-05T05:48:09.245Z,6.25
2023-02-05T05:50:37.518Z,6.07
2023-02-05T05:53:05.810Z,6.28
2023-02-05T05:55:34.319Z,6.03
2023-02-05T05:58:05.435Z,6.32
2023-02-05T06:00:34.616Z,6.30
2023-02-05T06:03:02.908Z,6.40
2023-02-05T06:05:31.227Z,6.60
2023-02-05T06:07:59.525Z,7.13
2023-02-05T06:10:28.023Z,6.45
2023-02-05T06:12:57.748Z,5.95
2023-02-05T06:15:27.728Z,6.70
2023-02-05T06:17:56.043Z,6.13
2023-02-05T06:20:24.319Z,6.38
2023-02-05T06:22:52.605Z,12.65
2023-02-05T06:25:21.297Z,16.92
2023-02-05T06:27:49.607Z,10.50
2023-02-05T06:30:18.080Z,8.38
2023-02-05T06:32:49.895Z,8.48
2023-02-05T06:35:18.278Z,8.10
2023-02-05T06:37:47.689Z,9.68
2023-02-05T06:40:18.104Z,9.25
2023-02-05T06:42:46.729Z,9.65
2023-02-05T06:45:15.047Z,9.40
2023-02-05T06:47:43.325Z,8.63
2023-02-05T06:50:13.429Z,8.68
2023-02-05T06:52:41.717Z,8.77
2023-02-05T06:55:10.488Z,9.95
2023-02-05T06:57:38.772Z,11.48
2023-02-05T07:00:07.481Z,10.27
2023-02-05T07:02:36.021Z,9.88
2023-02-05T07:05:04.531Z,9.27
2023-02-05T07:07:34.411Z,10.07
2023-02-05T07:10:02.719Z,9.65
2023-02-05T07:12:31.019Z,9.35
2023-02-05T07:14:59.401Z,9.60
2023-02-05T07:17:27.995Z,19.40
2023-02-05T07:19:56.278Z,11.23
2023-02-05T07:22:24.603Z,10.48
2023-02-05T07:24:54.425Z,12.18
2023-02-05T07:27:22.751Z,13.30
2023-02-05T07:29:51.020Z,13.90
2023-02-05T07:32:19.304Z,24.15
2023-02-05T07:34:47.606Z,22.52
2023-02-05T07:37:15.884Z,19.88
2023-02-05T07:39:44.135Z,14.85
2023-02-05T07:42:13.781Z,12.02
2023-02-05T07:44:42.057Z,12.07
2023-02-05T07:47:10.343Z,10.45
2023-02-05T07:49:38.606Z,11.48
2023-02-05T07:52:07.152Z,11.02
2023-02-05T07:54:35.475Z,11.77
2023-02-05T07:57:06.633Z,11.82
2023-02-05T07:59:36.531Z,11.77
2023-02-05T08:02:04.860Z,16.30
2023-02-05T08:04:33.292Z,13.27
2023-02-05T08:07:01.608Z,12.50
2023-02-05T08:09:29.885Z,11.90
2023-02-05T08:11:58.181Z,11.00
2023-02-05T08:14:26.447Z,10.52
2023-02-05T08:16:56.050Z,11.35
2023-02-05T08:19:24.277Z,11.43
2023-02-05T08:21:53.249Z,11.38
2023-02-05T08:24:21.537Z,11.18
2023-02-05T08:26:49.785Z,17.15
2023-02-05T08:29:20.092Z,12.77
2023-02-05T08:31:48.511Z,12.57
2023-02-05T08:34:20.550Z,25.15
2023-02-05T08:36:49.457Z,13.30
2023-02-05T08:39:17.701Z,11.88
2023-02-05T08:41:46.141Z,11.90
2023-02-05T08:44:14.347Z,11.40
2023-02-05T08:46:49.675Z,14.68
2023-02-05T08:49:20.111Z,13.93
2023-02-05T08:51:48.390Z,10.82
2023-02-05T08:54:16.671Z,10.27
2023-02-05T08:56:46.109Z,11.02
2023-02-05T08:59:14.760Z,11.27
2023-02-05T09:01:43.844Z,10.30
2023-02-05T09:04:14.040Z,9.90
2023-02-05T09:06:43.712Z,9.77
2023-02-05T09:09:12.496Z,9.55
2023-02-05T09:11:41.578Z,8.27
2023-02-05T09:14:11.695Z,9.77
2023-02-05T09:16:40.405Z,8.32
2023-02-05T09:19:08.895Z,8.10
2023-02-05T09:21:37.182Z,8.18
2023-02-05T09:24:07.049Z,8.48
2023-02-05T09:26:35.631Z,10.07
2023-02-05T09:29:03.953Z,9.90
2023-02-05T09:31:32.319Z,9.52
2023-02-05T09:34:00.605Z,9.85
2023-02-05T09:36:28.926Z,9.82
2023-02-05T09:39:12.999Z,10.23
2023-02-05T09:41:49.636Z,10.68
2023-02-05T09:44:21.686Z,9.70
2023-02-05T09:46:54.571Z,8.73
2023-02-05T09:49:27.474Z,9.83
2023-02-05T09:51:59.090Z,12.98
2023-02-05T09:54:28.369Z,13.85
2023-02-05T09:57:00.342Z,13.10
2023-02-05T09:59:29.826Z,12.77
2023-02-05T10:01:59.221Z,12.05
2023-02-05T10:04:27.934Z,9.20
2023-02-05T10:07:11.609Z,7.57
2023-02-05T10:09:46.514Z,8.13
2023-02-05T10:12:22.005Z,14.65
2023-02-05T10:14:56.912Z,9.18
2023-02-05T10:17:31.066Z,10.43
2023-02-05T10:20:14.485Z,10.38
2023-02-05T10:22:46.194Z,6.72
2023-02-05T10:25:31.615Z,9.57
2023-02-05T10:28:04.025Z,7.80
2023-02-05T10:30:34.138Z,7.90
2023-02-05T10:33:09.322Z,8.77
2023-02-05T10:35:44.361Z,13.88
2023-02-05T10:38:23.725Z,9.48
2023-02-05T10:40:53.701Z,9.27
2023-02-05T10:43:25.044Z,9.30
2023-02-05T10:45:53.376Z,10.05
2023-02-05T10:48:27.500Z,9.20
2023-02-05T10:50:59.501Z,9.82
2023-02-05T10:53:31.042Z,11.48
2023-02-05T10:56:02.595Z,11.27
2023-02-05T10:58:39.321Z,10.02
2023-02-05T11:01:08.052Z,11.13
2023-02-05T11:03:36.755Z,10.43
2023-02-05T11:06:06.448Z,10.90
2023-02-05T11:08:36.313Z,13.93
2023-02-05T11:11:06.949Z,14.13
2023-02-05T11:13:42.824Z,10.93
2023-02-05T11:16:12.594Z,10.13
2023-02-05T11:18:41.845Z,10.15
2023-02-05T11:21:12.415Z,10.05
2023-02-05T11:23:41.327Z,13.98
2023-02-05T11:26:12.609Z,14.15
2023-02-05T11:28:45.139Z,13.80
2023-02-05T11:31:26.379Z,18.35
2023-02-05T11:34:11.888Z,11.23
2023-02-05T11:36:41.214Z,10.30
2023-02-05T11:39:24.825Z,10.88
2023-02-05T11:41:56.356Z,11.90
2023-02-05T11:44:30.111Z,11.90
2023-02-05T11:47:02.931Z,12.07
2023-02-05T11:49:34.558Z,12.10
2023-02-05T11:52:09.419Z,10.18
2023-02-05T11:54:40.972Z,10.63
2023-02-05T11:57:10.610Z,10.82
2023-02-05T11:59:44.641Z,11.55
2023-02-05T12:02:30.951Z,11.32
2023-02-05T12:05:04.441Z,14.00
2023-02-05T12:07:37.900Z,11.73
2023-02-05T12:10:06.392Z,9.93
2023-02-05T12:12:38.516Z,11.73
2023-02-05T12:15:15.174Z,11.23
2023-02-05T12:17:44.442Z,11.60
2023-02-05T12:20:17.370Z,10.27
2023-02-05T12:22:54.187Z,10.10
2023-02-05T12:25:26.183Z,10.90
2023-02-05T12:27:59.236Z,12.85
2023-02-05T12:30:37.026Z,11.60
2023-02-05T12:33:13.985Z,12.48
2023-02-05T12:35:50.607Z,11.63
2023-02-05T12:38:32.194Z,11.90
2023-02-05T12:41:06.161Z,9.25
2023-02-05T12:43:37.732Z,9.90
2023-02-05T12:46:26.929Z,11.30
2023-02-05T12:49:05.076Z,10.60
2023-02-05T12:51:39.948Z,10.55
2023-02-05T12:54:19.905Z,10.35
2023-02-05T12:56:54.247Z,11.40
2023-02-05T12:59:28.997Z,11.88
2023-02-05T13:01:58.383Z,10.95
2023-02-05T13:04:33.176Z,11.95
2023-02-05T13:07:05.722Z,14.45
2023-02-05T13:09:39.888Z,13.20
2023-02-05T13:12:10.668Z,13.68
2023-02-05T13:14:44.279Z,13.82
2023-02-05T13:17:14.739Z,12.88
2023-02-05T13:19:45.669Z,12.57
2023-02-05T13:22:33.275Z,13.82
2023-02-05T13:25:24.840Z,14.18
2023-02-05T13:28:17.215Z,13.38
2023-02-05T13:30:46.858Z,23.67
2023-02-05T13:33:15.255Z,19.83
2023-02-05T13:35:46.517Z,17.48
2023-02-05T13:38:36.332Z,14.88
2023-02-05T13:41:19.552Z,14.13
2023-02-05T13:44:05.767Z,13.50
2023-02-05T13:46:43.662Z,14.07
2023-02-05T13:49:38.639Z,14.40
2023-02-05T13:52:21.289Z,11.88
2023-02-05T13:55:04.438Z,12.38
2023-02-05T13:57:52.940Z,14.17
2023-02-05T14:00:23.350Z,14.38
2023-02-05T14:02:56.100Z,16.17
2023-02-05T14:05:30.105Z,14.85
2023-02-05T14:08:03.089Z,19.60
2023-02-05T14:10:32.973Z,20.45
2023-02-05T14:13:12.109Z,16.42
2023-02-05T14:15:44.413Z,15.85
2023-02-05T14:18:13.113Z,16.60
2023-02-05T14:20:42.296Z,16.33
2023-02-05T14:23:38.386Z,19.73
2023-02-05T14:26:12.382Z,16.88
2023-02-05T14:28:47.819Z,16.92
2023-02-05T14:31:34.703Z,19.73
2023-02-05T14:34:22.587Z,19.63
2023-02-05T14:36:52.961Z,16.42
2023-02-05T14:39:24.800Z,15.40
2023-02-05T14:42:01.533Z,17.13
2023-02-05T14:44:31.262Z,18.08
2023-02-05T14:47:05.989Z,18.33
2023-02-05T14:49:44.923Z,15.13
2023-02-05T14:52:28.073Z,15.38
2023-02-05T14:55:00.307Z,18.30
2023-02-05T14:57:31.445Z,18.67
2023-02-05T15:00:01.465Z,16.55
2023-02-05T15:02:48.706Z,16.88
2023-02-05T15:05:19.570Z,15.00
2023-02-05T15:07:48.323Z,15.65
2023-02-05T15:10:19.522Z,17.33
2023-02-05T15:12:56.285Z,14.93
2023-02-05T15:15:28.127Z,15.32
2023-02-05T15:18:00.980Z,17.17
2023-02-05T15:20:32.383Z,18.52
2023-02-05T15:23:03.713Z,19.15
2023-02-05T15:25:38.231Z,18.05
2023-02-05T15:28:09.972Z,19.67
2023-02-05T15:30:47.774Z,16.65
2023-02-05T15:33:19.438Z,20.95
2023-02-05T15:35:52.601Z,21.15
2023-02-05T15:38:31.296Z,20.25
2023-02-05T15:41:00.195Z,15.45
2023-02-05T15:43:29.880Z,30.90
2023-02-05T15:46:01.410Z,23.75
2023-02-05T15:48:31.436Z,24.10
2023-02-05T15:51:01.596Z,19.92
2023-02-05T15:53:33.204Z,18.95
2023-02-05T15:56:02.070Z,16.42
2023-02-05T15:58:31.727Z,16.52
2023-02-05T16:00:59.997Z,18.88
2023-02-05T16:03:32.459Z,20.42
2023-02-05T16:06:00.901Z,22.15
2023-02-05T16:08:29.417Z,20.70
2023-02-05T16:10:58.686Z,22.00
2023-02-05T16:13:27.524Z,20.63
2023-02-05T16:16:00.819Z,22.77
2023-02-05T16:18:32.962Z,17.55
2023-02-05T16:21:04.568Z,16.95
2023-02-05T16:23:34.142Z,15.98
2023-02-05T16:26:04.456Z,16.27
2023-02-05T16:28:37.308Z,19.20
2023-02-05T16:31:07.650Z,19.30
2023-02-05T16:33:38.321Z,17.13
2023-02-05T16:36:08.391Z,17.40
2023-02-05T16:38:37.406Z,18.80
2023-02-05T16:41:19.465Z,17.10
2023-02-05T16:43:48.158Z,13.93
2023-02-05T16:46:25.859Z,17.02
2023-02-05T16:48:55.393Z,17.20
2023-02-05T16:51:44.678Z,21.45
2023-02-05T16:54:33.096Z,19.92
2023-02-05T16:57:04.165Z,16.23
2023-02-05T16:59:34.108Z,20.10
2023-02-05T17:02:04.318Z,20.67
2023-02-05T17:04:34.218Z,17.45
2023-02-05T17:07:03.700Z,15.80
2023-02-05T17:09:34.241Z,15.13
2023-02-05T17:12:21.185Z,13.35
2023-02-05T17:14:54.593Z,13.93
2023-02-05T17:17:25.573Z,14.00
2023-02-05T17:20:07.752Z,11.85
2023-02-05T17:22:36.054Z,12.73
2023-02-05T17:25:05.823Z,12.50
2023-02-05T17:27:35.727Z,12.60
2023-02-05T17:30:05.225Z,12.68
2023-02-05T17:32:34.989Z,15.68
2023-02-05T17:35:03.321Z,13.85
2023-02-05T17:37:31.612Z,16.92
2023-02-05T17:39:59.902Z,13.20
2023-02-05T17:42:31.120Z,11.55
2023-02-05T17:44:59.448Z,15.70
2023-02-05T17:47:27.753Z,16.23
2023-02-05T17:49:57.933Z,16.27
2023-02-05T17:52:26.274Z,20.42
2023-02-05T17:54:57.722Z,17.23
2023-02-05T17:57:28.262Z,17.35
2023-02-05T17:59:58.321Z,20.65
2023-02-05T18:02:26.652Z,21.90
2023-02-05T18:04:55.189Z,22.30
2023-02-05T18:07:29.842Z,23.25
2023-02-05T18:09:59.409Z,17.52
2023-02-05T18:12:28.026Z,14.60
2023-02-05T18:14:56.489Z,15.50
2023-02-05T18:17:24.768Z,15.93
2023-02-05T18:19:55.858Z,13.02
2023-02-05T18:22:25.681Z,13.88
2023-02-05T18:24:53.951Z,14.98
2023-02-05T18:27:25.944Z,16.55
2023-02-05T18:29:55.982Z,17.13
2023-02-05T18:32:24.269Z,17.48
2023-02-05T18:34:55.425Z,30.98
2023-02-05T18:37:27.152Z,26.55
2023-02-05T18:39:55.571Z,20.40
2023-02-05T18:42:24.216Z,16.45
2023-02-05T18:44:54.111Z,14.75
2023-02-05T18:47:22.403Z,15.05
2023-02-05T18:49:53.833Z,16.77
2023-02-05T18:52:29.926Z,18.33
2023-02-05T18:55:07.573Z,15.35
2023-02-05T18:57:35.889Z,16.15
2023-02-05T19:00:04.220Z,15.88
2023-02-05T19:02:35.226Z,15.98
2023-02-05T19:05:03.664Z,14.30
2023-02-05T19:07:33.323Z,15.00
2023-02-05T19:10:02.494Z,15.75
2023-02-05T19:12:32.022Z,15.45
2023-02-05T19:15:00.413Z,15.93
2023-02-05T19:17:29.054Z,15.50
2023-02-05T19:19:57.415Z,15.85
2023-02-05T19:22:25.685Z,15.48
2023-02-05T19:24:55.799Z,14.10
2023-02-05T19:27:27.135Z,16.25
2023-02-05T19:29:55.438Z,15.82
2023-02-05T19:32:24.608Z,15.38
2023-02-05T19:34:54.833Z,14.70
2023-02-05T19:37:23.096Z,14.68
2023-02-05T19:39:51.385Z,15.05
2023-02-05T19:42:22.334Z,18.08
2023-02-05T19:44:50.974Z,16.90
2023-02-05T19:47:19.237Z,16.10
2023-02-05T19:49:47.500Z,15.77
2023-02-05T19:52:15.760Z,16.35
2023-02-05T19:54:44.149Z,15.60
2023-02-05T19:57:12.438Z,16.70
2023-02-05T19:59:42.092Z,17.48
2023-02-05T20:02:11.915Z,13.63
2023-02-05T20:04:42.224Z,16.30
2023-02-05T20:07:10.555Z,13.95
2023-02-05T20:09:38.810Z,14.95
2023-02-05T20:12:07.242Z,14.50
2023-02-05T20:14:35.652Z,15.80
2023-02-05T20:17:05.299Z,16.70
2023-02-05T20:19:33.678Z,16.67
2023-02-05T20:22:01.926Z,16.02
2023-02-05T20:24:30.143Z,14.18
2023-02-05T20:26:58.555Z,14.25
2023-02-05T20:29:44.542Z,15.68
2023-02-05T20:32:14.138Z,14.57
2023-02-05T20:34:47.581Z,15.35
2023-02-05T20:37:15.907Z,14.15
2023-02-05T20:39:44.787Z,16.23
2023-02-05T20:42:14.098Z,19.02
2023-02-05T20:44:43.100Z,15.82
2023-02-05T20:47:12.299Z,14.50
2023-02-05T20:49:42.788Z,16.13
2023-02-05T20:52:11.487Z,17.58
2023-02-05T20:54:39.853Z,16.23
2023-02-05T20:57:09.207Z,16.25
2023-02-05T20:59:38.618Z,15.02
2023-02-05T21:02:07.066Z,15.15
2023-02-05T21:04:35.413Z,19.30
2023-02-05T21:07:05.273Z,18.67
2023-02-05T21:09:33.588Z,25.42
2023-02-05T21:12:01.932Z,28.73
2023-02-05T21:14:32.792Z,23.63
2023-02-05T21:17:02.562Z,18.25
2023-02-05T21:19:30.956Z,16.67
2023-02-05T21:21:59.330Z,17.13
2023-02-05T21:24:29.144Z,16.83
2023-02-05T21:26:57.689Z,18.65
2023-02-05T21:29:26.087Z,16.17
2023-02-05T21:31:56.690Z,14.18
2023-02-05T21:34:33.581Z,15.73
2023-02-05T21:37:01.896Z,14.38
2023-02-05T21:39:31.594Z,13.88
2023-02-05T21:41:59.980Z,13.02
2023-02-05T21:44:28.278Z,15.27
2023-02-05T21:46:56.607Z,14.85
2023-02-05T21:49:24.872Z,15.73
2023-02-05T21:51:53.358Z,14.60
2023-02-05T21:54:25.425Z,15.90
2023-02-05T21:56:55.862Z,16.83
2023-02-05T21:59:24.120Z,13.43
2023-02-05T22:01:52.555Z,14.82
2023-02-05T22:04:20.991Z,15.32
2023-02-05T22:06:49.283Z,14.82
2023-02-05T22:09:18.261Z,15.30
2023-02-05T22:11:47.820Z,15.02
2023-02-05T22:14:17.391Z,16.33
2023-02-05T22:16:46.041Z,14.15
2023-02-05T22:19:14.298Z,15.20
2023-02-05T22:21:44.089Z,14.93
2023-02-05T22:24:14.702Z,14.38
2023-02-05T22:26:43.492Z,15.57
2023-02-05T22:29:13.030Z,14.98
2023-02-05T22:31:44.328Z,14.70
2023-02-05T22:34:12.992Z,14.35
2023-02-05T22:36:41.323Z,13.57
2023-02-05T22:39:09.744Z,14.10
2023-02-05T22:41:39.537Z,13.65
2023-02-05T22:44:08.241Z,15.10
2023-02-05T22:46:37.477Z,15.32
2023-02-05T22:49:07.242Z,15.43
2023-02-05T22:51:37.068Z,15.35
2023-02-05T22:54:05.748Z,16.00
2023-02-05T22:56:34.469Z,15.93
2023-02-05T22:59:03.573Z,14.35
2023-02-05T23:01:32.745Z,12.82
2023-02-05T23:04:01.133Z,13.85
2023-02-05T23:06:31.825Z,16.42
2023-02-05T23:09:01.273Z,14.15
2023-02-05T23:11:30.748Z,13.57
2023-02-05T23:13:59.439Z,15.63
2023-02-05T23:16:28.730Z,14.73
2023-02-05T23:18:58.604Z,15.15
2023-02-05T23:21:27.495Z,14.30
2023-02-05T23:23:57.148Z,14.40
2023-02-05T23:26:26.158Z,14.70
2023-02-05T23:28:55.038Z,12.88
2023-02-05T23:31:24.005Z,14.00
2023-02-05T23:33:52.632Z,13.35
2023-02-05T23:36:20.982Z,12.23
2023-02-05T23:38:49.613Z,11.43
2023-02-05T23:41:35.504Z,13.80
2023-02-05T23:44:05.070Z,14.05
2023-02-05T23:46:33.371Z,13.07
2023-02-05T23:49:01.686Z,12.75
2023-02-05T23:51:29.964Z,13.43
2023-02-05T23:53:58.242Z,14.05
2023-02-05T23:56:27.917Z,13.10
2023-02-05T23:58:56.200Z,14.48
